createdAt,value
2019-02-22T00:02:05.734Z,6.93
2019-02-22T00:04:33.723Z,6.90
2019-02-22T00:07:01.759Z,6.75
2019-02-22T00:09:29.561Z,6.77
2019-02-22T00:11:57.582Z,6.73
2019-02-22T00:14:25.630Z,6.65
2019-02-22T00:16:53.566Z,6.65
2019-02-22T00:19:21.577Z,6.63
2019-02-22T00:21:49.637Z,6.53
2019-02-22T00:24:17.572Z,6.54
2019-02-22T00:26:45.381Z,6.39
2019-02-22T00:29:13.660Z,6.50
2019-02-22T00:31:41.961Z,6.56
2019-02-22T00:34:09.915Z,6.61
2019-02-22T00:36:37.942Z,6.64
2019-02-22T00:39:06.140Z,6.69
2019-02-22T00:41:35.275Z,6.62
2019-02-22T00:44:03.435Z,6.63
2019-02-22T00:46:31.316Z,6.51
2019-02-22T00:48:59.510Z,6.36
2019-02-22T00:51:27.783Z,6.39
2019-02-22T00:53:55.606Z,6.47
2019-02-22T00:56:23.588Z,6.45
2019-02-22T00:58:52.547Z,6.45
2019-02-22T01:01:20.565Z,6.48
2019-02-22T01:03:49.537Z,6.50
2019-02-22T01:06:17.314Z,6.44
2019-02-22T01:08:45.210Z,6.36
2019-02-22T01:11:13.038Z,6.43
2019-02-22T01:13:40.991Z,6.40
2019-02-22T01:16:09.094Z,6.46
2019-02-22T01:18:37.351Z,6.46
2019-02-22T01:21:05.202Z,6.50
2019-02-22T01:23:33.005Z,6.48
2019-02-22T01:26:00.966Z,6.48
2019-02-22T01:28:30.096Z,6.51
2019-02-22T01:30:58.206Z,6.56
2019-02-22T01:33:26.232Z,6.60
2019-02-22T01:35:54.037Z,6.59
2019-02-22T01:38:22.131Z,6.34
2019-02-22T01:40:50.039Z,6.14
2019-02-22T01:43:18.141Z,6.06
2019-02-22T01:45:46.085Z,6.00
2019-02-22T01:48:14.096Z,6.01
2019-02-22T01:50:42.279Z,5.93
2019-02-22T01:53:10.400Z,5.99
2019-02-22T01:55:38.325Z,5.97
2019-02-22T01:58:06.278Z,5.81
2019-02-22T02:00:34.155Z,5.84
2019-02-22T02:03:02.263Z,5.80
2019-02-22T02:05:30.320Z,5.80
2019-02-22T02:07:58.572Z,5.65
2019-02-22T02:10:26.325Z,5.63
2019-02-22T02:12:54.451Z,5.44
2019-02-22T02:15:22.371Z,5.38
2019-02-22T02:17:50.451Z,5.45
2019-02-22T02:20:18.429Z,5.44
2019-02-22T02:22:46.666Z,5.38
2019-02-22T02:25:14.888Z,5.36
2019-02-22T02:27:42.836Z,5.27
2019-02-22T02:30:11.049Z,5.19
2019-02-22T02:32:39.142Z,5.12
2019-02-22T02:35:07.280Z,5.11
2019-02-22T02:37:35.484Z,5.15
2019-02-22T02:40:04.129Z,4.88
2019-02-22T02:42:32.257Z,4.98
2019-02-22T02:45:00.576Z,5.03
2019-02-22T02:47:28.797Z,5.11
2019-02-22T02:49:56.892Z,5.08
2019-02-22T02:52:25.115Z,5.06
2019-02-22T02:54:53.161Z,5.06
2019-02-22T02:57:21.271Z,5.04
2019-02-22T02:59:49.389Z,5.00
2019-02-22T03:02:28.956Z,4.99
2019-02-22T03:04:56.855Z,5.09
2019-02-22T03:07:44.864Z,5.02
2019-02-22T03:10:12.930Z,4.96
2019-02-22T03:12:40.943Z,4.95
2019-02-22T03:15:10.048Z,4.99
2019-02-22T03:17:38.382Z,5.03
2019-02-22T03:20:06.204Z,5.03
2019-02-22T03:22:34.272Z,4.98
2019-02-22T03:25:02.190Z,4.92
2019-02-22T03:27:30.155Z,4.85
2019-02-22T03:29:58.342Z,4.80
2019-02-22T03:32:26.406Z,4.79
2019-02-22T03:34:54.297Z,4.80
2019-02-22T03:37:22.570Z,4.78
2019-02-22T03:39:50.682Z,4.81
2019-02-22T03:42:18.609Z,4.81
2019-02-22T03:44:46.929Z,4.78
2019-02-22T03:47:14.882Z,4.75
2019-02-22T03:49:43.862Z,4.77
2019-02-22T03:52:24.887Z,4.79
2019-02-22T03:54:52.958Z,4.77
2019-02-22T03:57:21.062Z,4.79
2019-02-22T03:59:51.174Z,4.85
2019-02-22T04:02:19.009Z,4.71
2019-02-22T04:04:47.117Z,4.68
2019-02-22T04:07:14.991Z,4.69
2019-02-22T04:09:42.716Z,4.73
2019-02-22T04:12:10.750Z,4.62
2019-02-22T04:14:39.050Z,4.42
2019-02-22T04:17:07.137Z,4.42
2019-02-22T04:19:35.123Z,4.43
2019-02-22T04:22:03.318Z,4.37
2019-02-22T04:24:31.214Z,4.38
2019-02-22T04:26:59.159Z,4.43
2019-02-22T04:29:27.177Z,4.46
2019-02-22T04:31:55.121Z,4.46
2019-02-22T04:34:22.916Z,4.45
2019-02-22T04:36:50.972Z,4.47
2019-02-22T04:39:18.984Z,4.48
2019-02-22T04:41:57.804Z,4.41
2019-02-22T04:44:17.290Z,4.38
2019-02-22T04:46:45.180Z,4.38
2019-02-22T04:49:13.324Z,4.44
2019-02-22T04:51:41.350Z,4.49
2019-02-22T04:54:09.165Z,4.50
2019-02-22T04:56:37.054Z,4.48
2019-02-22T04:59:05.157Z,4.51
2019-02-22T05:01:33.253Z,4.53
2019-02-22T05:04:01.514Z,4.56
2019-02-22T05:06:29.496Z,4.60
2019-02-22T05:08:57.632Z,4.69
2019-02-22T05:13:53.979Z,4.79
2019-02-22T05:16:21.910Z,4.74
2019-02-22T05:18:49.804Z,4.69
2019-02-22T05:21:17.741Z,4.72
2019-02-22T05:23:45.528Z,4.72
2019-02-22T05:26:13.478Z,4.60
2019-02-22T05:28:41.348Z,4.58
2019-02-22T05:31:09.407Z,4.54
2019-02-22T05:33:37.263Z,4.58
2019-02-22T05:36:05.162Z,4.64
2019-02-22T05:38:33.214Z,4.58
2019-02-22T05:41:01.259Z,4.67
2019-02-22T05:43:29.486Z,4.71
2019-02-22T05:45:57.659Z,4.79
2019-02-22T05:48:27.206Z,4.79
2019-02-22T05:50:56.829Z,4.93
2019-02-22T05:53:24.888Z,5.00
2019-02-22T05:55:52.751Z,5.10
2019-02-22T05:58:20.636Z,5.23
2019-02-22T06:00:50.245Z,5.31
2019-02-22T06:03:18.228Z,5.42
2019-02-22T06:05:47.633Z,5.48
2019-02-22T06:08:15.858Z,5.52
2019-02-22T06:10:43.808Z,5.55
2019-02-22T06:13:11.792Z,5.69
2019-02-22T06:15:39.894Z,5.82
2019-02-22T06:18:07.939Z,5.95
2019-02-22T06:20:36.079Z,6.11
2019-02-22T06:23:04.340Z,6.29
2019-02-22T06:25:32.312Z,6.48
2019-02-22T06:28:00.262Z,6.68
2019-02-22T06:30:28.370Z,6.84
2019-02-22T06:32:56.281Z,7.15
2019-02-22T06:35:24.128Z,7.32
2019-02-22T06:37:52.093Z,7.49
2019-02-22T06:40:21.690Z,7.55
2019-02-22T06:42:50.094Z,7.72
2019-02-22T06:45:18.169Z,7.75
2019-02-22T06:47:46.174Z,7.81
2019-02-22T06:50:15.970Z,7.92
2019-02-22T06:52:44.070Z,8.03
2019-02-22T06:55:12.258Z,8.01
2019-02-22T06:57:40.057Z,8.09
2019-02-22T07:00:09.020Z,8.12
2019-02-22T07:02:36.931Z,8.12
2019-02-22T07:05:04.942Z,8.25
2019-02-22T07:07:32.839Z,8.24
2019-02-22T07:10:00.907Z,8.23
2019-02-22T07:12:32.931Z,8.26
2019-02-22T07:15:00.973Z,8.29
2019-02-22T07:17:29.032Z,8.31
2019-02-22T07:19:57.363Z,8.32
2019-02-22T07:22:25.455Z,8.35
2019-02-22T07:24:53.327Z,8.37
2019-02-22T07:27:21.218Z,8.38
2019-02-22T07:29:49.177Z,8.34
2019-02-22T07:32:17.162Z,8.41
2019-02-22T07:34:44.995Z,8.38
2019-02-22T07:37:12.886Z,8.37
2019-02-22T07:39:40.733Z,8.40
2019-02-22T07:42:08.746Z,8.42
2019-02-22T07:44:36.751Z,8.32
2019-02-22T07:47:04.945Z,8.45
2019-02-22T07:49:32.996Z,8.48
2019-02-22T07:52:01.014Z,8.50
2019-02-22T07:54:29.004Z,8.43
2019-02-22T07:56:57.146Z,8.51
2019-02-22T07:59:25.257Z,8.57
2019-02-22T08:01:53.276Z,8.62
2019-02-22T08:04:21.340Z,8.66
2019-02-22T08:06:49.343Z,8.54
2019-02-22T08:09:17.088Z,8.47
2019-02-22T08:11:47.412Z,8.54
2019-02-22T08:14:15.060Z,8.62
2019-02-22T08:16:43.136Z,8.68
2019-02-22T08:19:11.408Z,8.71
2019-02-22T08:21:39.672Z,8.73
2019-02-22T08:24:07.555Z,8.78
2019-02-22T08:26:35.464Z,8.81
2019-02-22T08:29:03.938Z,8.84
2019-02-22T08:31:31.954Z,8.88
2019-02-22T08:33:59.781Z,8.85
2019-02-22T08:36:27.833Z,8.86
2019-02-22T08:38:55.829Z,8.98
2019-02-22T08:41:23.879Z,9.12
2019-02-22T08:43:52.070Z,9.15
2019-02-22T08:46:20.323Z,9.32
2019-02-22T08:48:48.180Z,9.44
2019-02-22T08:51:16.366Z,9.65
2019-02-22T08:53:44.736Z,9.80
2019-02-22T08:56:12.598Z,9.93
2019-02-22T08:58:40.595Z,9.98
2019-02-22T09:01:08.660Z,10.10
2019-02-22T09:03:36.779Z,10.12
2019-02-22T09:06:04.973Z,10.28
2019-02-22T09:08:32.985Z,10.36
2019-02-22T09:11:01.040Z,10.44
2019-02-22T09:13:29.335Z,10.54
2019-02-22T09:15:57.623Z,10.58
2019-02-22T09:18:25.556Z,10.66
2019-02-22T09:20:53.307Z,10.59
2019-02-22T09:23:21.178Z,10.71
2019-02-22T09:25:49.127Z,10.86
2019-02-22T09:28:17.130Z,10.99
2019-02-22T09:30:45.020Z,11.31
2019-02-22T09:33:13.065Z,11.62
2019-02-22T09:35:41.028Z,12.49
2019-02-22T09:38:08.900Z,13.09
2019-02-22T09:40:37.090Z,13.87
2019-02-22T09:43:04.922Z,14.58
2019-02-22T09:45:32.798Z,14.95
2019-02-22T09:48:00.881Z,15.73
2019-02-22T09:50:28.717Z,16.16
2019-02-22T09:52:56.839Z,16.24
2019-02-22T09:55:24.662Z,16.45
2019-02-22T09:57:52.566Z,16.25
2019-02-22T10:00:20.455Z,15.54
2019-02-22T10:02:48.411Z,16.00
2019-02-22T10:05:16.613Z,15.86
2019-02-22T10:07:44.641Z,16.07
2019-02-22T10:10:12.954Z,16.17
2019-02-22T10:12:41.121Z,16.03
2019-02-22T10:15:09.084Z,15.85
2019-02-22T10:17:37.023Z,15.67
2019-02-22T10:20:05.387Z,15.38
2019-02-22T10:22:33.325Z,14.89
2019-02-22T10:25:01.390Z,14.80
2019-02-22T10:27:29.462Z,14.22
2019-02-22T10:29:57.568Z,14.29
2019-02-22T10:32:25.520Z,13.83
2019-02-22T10:34:53.465Z,13.82
2019-02-22T10:37:21.756Z,13.49
2019-02-22T10:39:49.857Z,13.39
2019-02-22T10:42:17.923Z,13.27
2019-02-22T10:44:45.787Z,13.37
2019-02-22T10:47:13.836Z,13.47
2019-02-22T10:49:41.859Z,13.58
2019-02-22T10:52:09.979Z,13.80
2019-02-22T10:54:38.034Z,13.74
2019-02-22T10:57:06.251Z,13.49
2019-02-22T10:59:34.204Z,13.37
2019-02-22T11:02:02.306Z,13.17
2019-02-22T11:04:30.305Z,12.98
2019-02-22T11:06:58.393Z,12.85
2019-02-22T11:09:26.434Z,12.63
2019-02-22T11:11:54.412Z,12.85
2019-02-22T11:14:29.147Z,13.11
2019-02-22T11:16:52.298Z,13.06
2019-02-22T11:19:20.229Z,13.18
2019-02-22T11:21:48.416Z,13.32
2019-02-22T11:24:16.225Z,13.12
2019-02-22T11:26:44.177Z,13.23
2019-02-22T11:29:12.178Z,13.42
2019-02-22T11:31:40.040Z,13.47
2019-02-22T11:34:08.264Z,13.47
2019-02-22T11:36:36.020Z,13.46
2019-02-22T11:39:04.708Z,13.58
2019-02-22T11:41:34.653Z,13.65
2019-02-22T11:44:02.606Z,13.90
2019-02-22T11:46:30.576Z,14.22
2019-02-22T11:48:58.518Z,13.77
2019-02-22T11:51:26.764Z,13.78
2019-02-22T11:53:55.011Z,13.56
2019-02-22T11:56:22.912Z,13.83
2019-02-22T11:58:50.926Z,14.51
2019-02-22T12:01:18.811Z,15.41
2019-02-22T12:03:47.093Z,16.33
2019-02-22T12:06:14.684Z,16.88
2019-02-22T12:08:42.959Z,17.45
2019-02-22T12:11:10.465Z,16.85
2019-02-22T12:13:39.714Z,16.88
2019-02-22T12:16:07.292Z,17.76
2019-02-22T12:18:36.623Z,16.93
2019-02-22T12:21:04.295Z,17.11
2019-02-22T12:23:31.870Z,17.74
2019-02-22T12:25:59.507Z,16.73
2019-02-22T12:28:27.125Z,16.73
2019-02-22T12:30:54.709Z,16.22
2019-02-22T12:33:22.319Z,16.20
2019-02-22T12:35:49.999Z,16.40
2019-02-22T12:38:17.581Z,15.80
2019-02-22T12:40:45.177Z,15.74
2019-02-22T12:43:12.936Z,15.99
2019-02-22T12:45:40.548Z,15.96
2019-02-22T12:48:08.105Z,16.29
2019-02-22T12:50:35.634Z,16.46
2019-02-22T12:53:03.255Z,16.61
2019-02-22T12:55:30.857Z,16.24
2019-02-22T12:57:58.451Z,16.23
2019-02-22T13:00:26.041Z,16.53
2019-02-22T13:03:01.616Z,16.35
2019-02-22T13:05:23.480Z,16.86
2019-02-22T13:07:52.661Z,17.04
2019-02-22T13:10:20.676Z,16.67
2019-02-22T13:12:48.374Z,16.21
2019-02-22T13:15:16.060Z,16.16
2019-02-22T13:17:43.843Z,16.20
2019-02-22T13:20:12.200Z,16.57
2019-02-22T13:22:40.382Z,17.31
2019-02-22T13:25:08.494Z,17.68
2019-02-22T13:27:36.731Z,17.92
2019-02-22T13:30:05.008Z,18.15
2019-02-22T13:32:32.999Z,18.22
2019-02-22T13:35:02.831Z,18.34
2019-02-22T13:37:30.752Z,17.86
2019-02-22T13:39:58.832Z,18.54
2019-02-22T13:42:26.587Z,18.29
2019-02-22T13:44:54.219Z,16.98
2019-02-22T13:47:21.815Z,17.27
2019-02-22T13:49:49.377Z,17.62
2019-02-22T13:52:17.028Z,17.70
2019-02-22T13:54:44.637Z,18.14
2019-02-22T13:57:12.337Z,17.81
2019-02-22T13:59:40.092Z,17.48
2019-02-22T14:02:07.917Z,16.47
2019-02-22T14:04:35.635Z,15.74
2019-02-22T14:07:04.876Z,16.42
2019-02-22T14:09:33.045Z,17.78
2019-02-22T14:12:01.167Z,18.12
2019-02-22T14:14:29.290Z,17.17
2019-02-22T14:16:57.363Z,16.17
2019-02-22T14:19:25.576Z,15.62
2019-02-22T14:21:53.826Z,15.01
2019-02-22T14:24:21.915Z,14.40
2019-02-22T14:26:51.121Z,13.87
2019-02-22T14:29:19.577Z,13.38
2019-02-22T14:31:47.452Z,13.03
2019-02-22T14:34:15.539Z,12.93
2019-02-22T14:36:43.804Z,12.69
2019-02-22T14:39:12.341Z,12.61
2019-02-22T14:41:40.381Z,12.43
2019-02-22T14:44:08.235Z,11.94
2019-02-22T14:46:36.223Z,11.70
2019-02-22T14:49:04.338Z,11.60
2019-02-22T14:51:32.318Z,11.16
2019-02-22T14:54:00.173Z,11.04
2019-02-22T14:56:28.138Z,10.86
2019-02-22T14:58:56.105Z,10.75
2019-02-22T15:01:24.301Z,10.74
2019-02-22T15:03:52.278Z,10.87
2019-02-22T15:06:20.439Z,10.78
2019-02-22T15:08:48.611Z,10.74
2019-02-22T15:11:16.817Z,10.95
2019-02-22T15:13:44.669Z,10.95
2019-02-22T15:16:38.390Z,11.07
2019-02-22T15:19:06.428Z,10.97
2019-02-22T15:21:35.990Z,10.77
2019-02-22T15:24:03.870Z,10.62
2019-02-22T15:26:31.929Z,10.58
2019-02-22T15:28:59.827Z,10.46
2019-02-22T15:31:35.868Z,10.32
2019-02-22T15:33:57.441Z,10.18
2019-02-22T15:36:25.448Z,10.16
2019-02-22T15:38:53.564Z,10.00
2019-02-22T15:41:21.600Z,9.98
2019-02-22T15:43:49.637Z,9.93
2019-02-22T15:46:17.827Z,9.96
2019-02-22T15:48:45.530Z,9.85
2019-02-22T15:51:13.590Z,9.87
2019-02-22T15:53:43.928Z,9.80
2019-02-22T15:56:11.759Z,9.76
2019-02-22T15:58:39.661Z,9.79
2019-02-22T16:01:07.794Z,9.79
2019-02-22T16:04:07.570Z,9.55
2019-02-22T16:06:35.501Z,9.53
2019-02-22T16:09:06.252Z,9.42
2019-02-22T16:11:36.370Z,9.46
2019-02-22T16:14:07.236Z,9.31
2019-02-22T16:16:35.297Z,9.21
2019-02-22T16:19:03.297Z,9.22
2019-02-22T16:21:31.330Z,9.18
2019-02-22T16:23:59.300Z,9.12
2019-02-22T16:26:29.190Z,9.06
2019-02-22T16:28:57.323Z,9.04
2019-02-22T16:31:25.386Z,9.04
2019-02-22T16:33:53.183Z,9.04
2019-02-22T16:36:21.448Z,8.92
2019-02-22T16:38:49.420Z,8.84
2019-02-22T16:41:17.264Z,8.87
2019-02-22T16:43:45.117Z,8.92
2019-02-22T16:46:14.132Z,8.71
2019-02-22T16:48:41.868Z,8.75
2019-02-22T16:51:09.767Z,8.69
2019-02-22T16:53:38.689Z,8.56
2019-02-22T16:56:06.710Z,8.54
2019-02-22T16:58:34.761Z,8.59
2019-02-22T17:01:02.719Z,8.59
2019-02-22T17:03:32.113Z,8.50
2019-02-22T17:06:00.156Z,8.50
2019-02-22T17:08:28.430Z,8.45
2019-02-22T17:10:56.401Z,8.41
2019-02-22T17:13:24.504Z,8.36
2019-02-22T17:15:52.262Z,8.18
2019-02-22T17:18:20.266Z,8.09
2019-02-22T17:20:48.340Z,8.12
2019-02-22T17:23:16.391Z,8.22
2019-02-22T17:25:44.455Z,8.20
2019-02-22T17:28:12.342Z,8.16
2019-02-22T17:30:40.479Z,8.10
2019-02-22T17:33:08.633Z,8.13
2019-02-22T17:35:36.938Z,8.02
2019-02-22T17:38:05.243Z,8.06
2019-02-22T17:40:33.591Z,7.99
2019-02-22T17:43:01.465Z,8.02
2019-02-22T17:45:29.342Z,7.99
2019-02-22T17:47:57.319Z,8.00
2019-02-22T17:50:25.463Z,8.00
2019-02-22T17:52:53.456Z,7.93
2019-02-22T17:55:21.614Z,7.93
2019-02-22T17:57:49.337Z,7.89
2019-02-22T18:00:19.292Z,7.90
2019-02-22T18:02:47.434Z,7.88
2019-02-22T18:05:15.473Z,7.77
2019-02-22T18:07:44.286Z,7.69
2019-02-22T18:10:12.141Z,7.71
2019-02-22T18:12:40.333Z,7.66
2019-02-22T18:15:08.361Z,7.67
2019-02-22T18:17:36.259Z,7.60
2019-02-22T18:20:04.378Z,7.61
2019-02-22T18:22:32.425Z,7.56
2019-02-22T18:25:00.408Z,7.55
2019-02-22T18:27:28.299Z,7.49
2019-02-22T18:29:57.216Z,7.49
2019-02-22T18:32:25.185Z,7.43
2019-02-22T18:34:52.924Z,7.33
2019-02-22T18:37:21.135Z,7.35
2019-02-22T18:39:49.143Z,7.32
2019-02-22T18:42:17.122Z,7.27
2019-02-22T18:44:44.929Z,7.28
2019-02-22T18:47:19.408Z,7.20
2019-02-22T18:49:42.901Z,7.17
2019-02-22T18:52:11.067Z,7.09
2019-02-22T18:54:38.961Z,7.08
2019-02-22T18:57:06.895Z,6.97
2019-02-22T18:59:34.737Z,6.89
2019-02-22T19:02:02.904Z,6.81
2019-02-22T19:04:31.057Z,6.88
2019-02-22T19:06:59.080Z,6.79
2019-02-22T19:09:27.053Z,6.72
2019-02-22T19:11:55.076Z,6.69
2019-02-22T19:14:22.918Z,6.70
2019-02-22T19:16:50.877Z,6.63
2019-02-22T19:19:18.994Z,6.59
2019-02-22T19:21:46.946Z,6.53
2019-02-22T19:24:16.570Z,6.50
2019-02-22T19:26:44.656Z,6.46
2019-02-22T19:29:12.651Z,6.46
2019-02-22T19:31:40.552Z,6.42
2019-02-22T19:34:08.375Z,6.38
2019-02-22T19:36:36.137Z,6.35
2019-02-22T19:39:05.155Z,6.32
2019-02-22T19:41:35.176Z,6.30
2019-02-22T19:44:03.121Z,6.34
2019-02-22T19:46:31.028Z,6.22
2019-02-22T19:48:59.036Z,6.21
2019-02-22T19:51:27.148Z,6.12
2019-02-22T19:53:55.026Z,6.01
2019-02-22T19:56:23.057Z,5.97
2019-02-22T19:58:50.724Z,5.97
2019-02-22T20:01:18.555Z,5.88
2019-02-22T20:03:47.899Z,5.80
2019-02-22T20:06:16.045Z,5.74
2019-02-22T20:08:44.013Z,5.69
2019-02-22T20:11:12.106Z,5.65
2019-02-22T20:13:39.899Z,5.54
2019-02-22T20:16:07.697Z,5.48
2019-02-22T20:18:36.742Z,5.42
2019-02-22T20:21:04.672Z,5.35
2019-02-22T20:23:32.995Z,5.38
2019-02-22T20:26:01.017Z,5.32
2019-02-22T20:28:29.053Z,5.21
2019-02-22T20:30:56.918Z,5.23
2019-02-22T20:33:25.993Z,5.21
2019-02-22T20:35:53.877Z,5.22
2019-02-22T20:38:21.677Z,5.23
2019-02-22T20:40:49.701Z,5.17
2019-02-22T20:43:17.667Z,5.16
2019-02-22T20:45:45.530Z,5.08
2019-02-22T20:48:13.410Z,5.03
2019-02-22T20:50:41.234Z,5.07
2019-02-22T20:53:09.142Z,5.01
2019-02-22T20:55:37.079Z,4.95
2019-02-22T20:58:05.078Z,4.91
2019-02-22T21:00:33.020Z,4.94
2019-02-22T21:03:00.902Z,4.85
2019-02-22T21:05:28.880Z,4.79
2019-02-22T21:07:56.717Z,4.78
2019-02-22T21:10:24.865Z,4.77
2019-02-22T21:12:52.667Z,4.68
2019-02-22T21:15:20.538Z,4.67
2019-02-22T21:17:48.840Z,4.69
2019-02-22T21:20:16.938Z,4.69
2019-02-22T21:22:44.847Z,4.63
2019-02-22T21:25:13.895Z,4.59
2019-02-22T21:27:41.998Z,4.51
2019-02-22T21:30:12.427Z,4.40
2019-02-22T21:32:40.376Z,4.25
2019-02-22T21:35:08.272Z,4.30
2019-02-22T21:37:37.249Z,4.24
2019-02-22T21:40:05.742Z,4.10
2019-02-22T21:42:33.769Z,4.08
2019-02-22T21:45:01.894Z,3.95
2019-02-22T21:47:30.611Z,3.92
2019-02-22T21:49:58.549Z,3.92
2019-02-22T21:52:26.447Z,3.94
2019-02-22T21:54:54.259Z,3.88
2019-02-22T21:57:22.216Z,3.88
2019-02-22T21:59:49.902Z,3.83
2019-02-22T22:02:17.957Z,3.74
2019-02-22T22:04:46.030Z,3.56
2019-02-22T22:07:13.957Z,3.51
2019-02-22T22:09:43.004Z,3.55
2019-02-22T22:12:11.105Z,3.54
2019-02-22T22:14:39.165Z,3.49
2019-02-22T22:17:07.227Z,3.46
2019-02-22T22:19:35.276Z,3.41
2019-02-22T22:22:03.394Z,3.48
2019-02-22T22:24:33.020Z,3.49
2019-02-22T22:27:00.887Z,3.40
2019-02-22T22:29:28.782Z,3.26
2019-02-22T22:31:56.670Z,3.11
2019-02-22T22:34:24.598Z,3.00
2019-02-22T22:36:52.562Z,2.95
2019-02-22T22:39:20.531Z,2.91
2019-02-22T22:41:48.400Z,2.80
2019-02-22T22:44:16.388Z,2.65
2019-02-22T22:46:44.404Z,2.46
2019-02-22T22:49:12.547Z,2.46
2019-02-22T22:51:40.403Z,2.44
2019-02-22T22:54:08.321Z,2.29
2019-02-22T22:56:36.319Z,2.29
2019-02-22T22:59:04.210Z,2.31
2019-02-22T23:01:34.188Z,2.26
2019-02-22T23:04:02.392Z,2.25
2019-02-22T23:06:30.391Z,2.16
2019-02-22T23:08:58.399Z,2.10
2019-02-22T23:11:26.421Z,2.07
2019-02-22T23:13:54.247Z,2.04
2019-02-22T23:16:22.110Z,1.99
2019-02-22T23:19:01.124Z,1.91
2019-02-22T23:21:20.178Z,1.88
2019-02-22T23:23:47.983Z,1.87
2019-02-22T23:26:15.849Z,1.85
2019-02-22T23:28:43.713Z,1.84
2019-02-22T23:31:11.777Z,1.80
2019-02-22T23:33:39.999Z,1.82
2019-02-22T23:36:08.033Z,1.83
2019-02-22T23:38:36.039Z,1.75
2019-02-22T23:41:05.097Z,1.67
2019-02-22T23:43:32.963Z,1.65
2019-02-22T23:46:01.041Z,1.63
2019-02-22T23:48:28.945Z,1.64
2019-02-22T23:50:56.984Z,1.59
2019-02-22T23:53:24.876Z,1.56
2019-02-22T23:55:52.783Z,1.45
2019-02-22T23:58:21.011Z,1.34
